createdAt,value
2018-04-13T00:01:56.424Z,4.80
2018-04-13T00:04:23.889Z,5.20
2018-04-13T00:06:51.371Z,3.83
2018-04-13T00:09:19.616Z,5.80
2018-04-13T00:11:47.093Z,4.30
2018-04-13T00:14:15.313Z,5.37
2018-04-13T00:16:42.786Z,4.67
2018-04-13T00:19:10.250Z,4.00
2018-04-13T00:21:37.724Z,5.10
2018-04-13T00:24:05.181Z,4.93
2018-04-13T00:26:32.640Z,4.37
2018-04-13T00:29:00.112Z,3.83
2018-04-13T00:31:28.348Z,4.43
2018-04-13T00:33:55.812Z,5.27
2018-04-13T00:36:23.268Z,4.50
2018-04-13T00:38:50.743Z,3.37
2018-04-13T00:41:18.206Z,4.53
2018-04-13T00:43:45.664Z,5.30
2018-04-13T00:46:13.120Z,4.50
2018-04-13T00:48:40.576Z,6.30
2018-04-13T00:51:08.047Z,4.67
2018-04-13T00:53:36.319Z,4.67
2018-04-13T00:56:04.548Z,5.57
2018-04-13T00:58:32.013Z,2.63
2018-04-13T01:00:59.468Z,6.30
2018-04-13T01:03:26.932Z,4.70
2018-04-13T01:05:54.399Z,5.37
2018-04-13T01:08:21.851Z,4.63
2018-04-13T01:10:49.320Z,7.20
2018-04-13T01:13:16.778Z,4.87
2018-04-13T01:15:44.240Z,3.60
2018-04-13T01:18:11.704Z,4.40
2018-04-13T01:20:39.157Z,7.47
2018-04-13T01:23:06.648Z,6.00
2018-04-13T01:25:34.101Z,5.93
2018-04-13T01:28:01.564Z,5.67
2018-04-13T01:30:29.035Z,6.57
2018-04-13T01:32:56.486Z,6.77
2018-04-13T01:35:23.957Z,7.17
2018-04-13T01:37:51.419Z,5.90
2018-04-13T01:40:18.885Z,8.17
2018-04-13T01:42:46.352Z,10.83
2018-04-13T01:45:13.817Z,11.23
2018-04-13T01:47:41.286Z,4.93
2018-04-13T01:50:08.745Z,6.13
2018-04-13T01:52:36.213Z,6.80
2018-04-13T01:55:04.461Z,6.63
2018-04-13T01:57:31.911Z,6.30
2018-04-13T01:59:59.381Z,5.93
2018-04-13T02:02:26.867Z,6.47
2018-04-13T02:04:55.106Z,7.93
2018-04-13T02:07:22.579Z,6.43
2018-04-13T02:09:50.036Z,9.60
2018-04-13T02:12:17.535Z,9.17
2018-04-13T02:14:44.983Z,8.77
2018-04-13T02:17:12.495Z,10.00
2018-04-13T02:19:39.956Z,4.30
2018-04-13T02:22:07.424Z,6.67
2018-04-13T02:24:34.891Z,9.63
2018-04-13T02:27:02.344Z,11.07
2018-04-13T02:29:29.819Z,12.63
2018-04-13T02:31:58.050Z,7.90
2018-04-13T02:34:25.604Z,8.53
2018-04-13T02:36:52.997Z,6.60
2018-04-13T02:39:21.231Z,7.03
2018-04-13T02:41:48.685Z,9.93
2018-04-13T02:44:16.155Z,5.03
2018-04-13T02:46:43.612Z,6.77
2018-04-13T02:49:11.081Z,8.90
2018-04-13T02:51:38.576Z,7.57
2018-04-13T02:54:06.804Z,3.90
2018-04-13T02:56:34.273Z,4.50
2018-04-13T02:59:01.736Z,3.40
2018-04-13T03:01:29.213Z,4.67
2018-04-13T03:03:57.439Z,8.07
2018-04-13T03:06:24.914Z,4.20
2018-04-13T03:08:52.396Z,8.80
2018-04-13T03:11:20.620Z,5.83
2018-04-13T03:13:48.093Z,8.53
2018-04-13T03:16:15.549Z,4.67
2018-04-13T03:18:43.020Z,11.10
2018-04-13T03:21:10.476Z,6.13
2018-04-13T03:23:37.943Z,5.83
2018-04-13T03:26:05.436Z,6.30
2018-04-13T03:28:32.895Z,6.73
2018-04-13T03:31:00.362Z,9.90
2018-04-13T03:33:27.818Z,5.07
2018-04-13T03:35:55.288Z,4.80
2018-04-13T03:38:22.753Z,5.67
2018-04-13T03:40:50.221Z,8.20
2018-04-13T03:43:17.701Z,8.13
2018-04-13T03:45:45.189Z,9.77
2018-04-13T03:48:12.677Z,10.73
2018-04-13T03:50:40.922Z,7.20
2018-04-13T03:53:09.144Z,7.17
2018-04-13T03:55:36.617Z,4.67
2018-04-13T03:58:04.069Z,6.10
2018-04-13T04:00:31.560Z,8.27
2018-04-13T04:02:59.802Z,9.17
2018-04-13T04:05:27.262Z,10.47
2018-04-13T04:07:54.745Z,8.53
2018-04-13T04:10:22.206Z,13.00
2018-04-13T04:12:50.436Z,9.00
2018-04-13T04:15:17.911Z,8.37
2018-04-13T04:17:45.381Z,9.70
2018-04-13T04:20:24.645Z,11.07
2018-04-13T04:23:04.811Z,8.77
2018-04-13T04:25:56.066Z,10.03
2018-04-13T04:28:23.537Z,10.53
2018-04-13T04:30:50.996Z,6.73
2018-04-13T04:33:18.467Z,5.73
2018-04-13T04:35:46.699Z,8.73
2018-04-13T04:38:14.161Z,10.60
2018-04-13T04:40:41.611Z,7.60
2018-04-13T04:43:09.081Z,8.43
2018-04-13T04:45:36.553Z,8.77
2018-04-13T04:48:04.025Z,8.73
2018-04-13T04:50:31.496Z,8.20
2018-04-13T04:52:59.729Z,7.90
2018-04-13T04:55:27.192Z,6.10
2018-04-13T04:57:54.661Z,8.13
2018-04-13T05:00:22.130Z,12.07
2018-04-13T05:02:49.615Z,6.37
2018-04-13T05:05:17.086Z,8.33
2018-04-13T05:07:44.540Z,7.67
2018-04-13T05:10:12.028Z,7.03
2018-04-13T05:12:39.500Z,8.53
2018-04-13T05:15:06.965Z,11.50
2018-04-13T05:17:34.430Z,10.83
2018-04-13T05:20:02.669Z,7.77
2018-04-13T05:22:30.198Z,8.77
2018-04-13T05:24:57.616Z,7.97
2018-04-13T05:27:25.080Z,10.00
2018-04-13T05:29:52.554Z,12.67
2018-04-13T05:32:20.026Z,12.63
2018-04-13T05:34:47.484Z,9.20
2018-04-13T05:37:14.950Z,7.73
2018-04-13T05:39:42.421Z,7.33
2018-04-13T05:42:09.883Z,8.10
2018-04-13T05:44:37.339Z,10.57
2018-04-13T05:47:04.808Z,7.40
2018-04-13T05:49:32.268Z,11.17
2018-04-13T05:51:59.764Z,8.70
2018-04-13T05:54:28.000Z,4.83
2018-04-13T05:56:55.457Z,10.50
2018-04-13T05:59:22.923Z,8.17
2018-04-13T06:01:51.166Z,11.30
2018-04-13T06:04:18.630Z,6.37
2018-04-13T06:06:46.096Z,5.93
2018-04-13T06:09:13.552Z,8.67
2018-04-13T06:11:41.231Z,5.43
2018-04-13T06:14:08.708Z,7.20
2018-04-13T06:16:36.180Z,7.53
2018-04-13T06:19:04.408Z,5.67
2018-04-13T06:21:31.864Z,5.40
2018-04-13T06:23:59.323Z,8.50
2018-04-13T06:26:26.786Z,8.77
2018-04-13T06:28:54.256Z,14.87
2018-04-13T06:31:21.713Z,8.13
2018-04-13T06:33:49.185Z,4.70
2018-04-13T06:36:16.649Z,18.20
2018-04-13T06:38:44.876Z,4.70
2018-04-13T06:41:12.345Z,2.07
2018-04-13T06:43:39.818Z,6.83
2018-04-13T06:46:07.282Z,5.23
2018-04-13T06:48:34.743Z,6.93
2018-04-13T06:51:02.291Z,5.80
2018-04-13T06:53:29.825Z,4.63
2018-04-13T06:55:57.284Z,3.47
2018-04-13T06:58:24.756Z,2.67
2018-04-13T07:00:52.264Z,29.90
2018-04-13T07:03:19.738Z,4.60
2018-04-13T07:05:47.200Z,3.07
2018-04-13T07:08:14.668Z,4.10
2018-04-13T07:10:42.124Z,2.83
2018-04-13T07:13:09.595Z,7.73
2018-04-13T07:15:37.332Z,1.50
2018-04-13T07:18:04.793Z,3.40
2018-04-13T07:20:32.253Z,3.97
2018-04-13T07:22:59.709Z,2.93
2018-04-13T07:25:27.178Z,1.47
2018-04-13T07:27:54.637Z,1.47
2018-04-13T07:30:22.112Z,1.00
2018-04-13T07:32:49.601Z,3.80
2018-04-13T07:35:17.820Z,0.90
2018-04-13T07:37:45.279Z,4.53
2018-04-13T07:40:12.731Z,1.43
2018-04-13T07:42:40.212Z,1.00
2018-04-13T07:45:08.450Z,3.47
2018-04-13T07:47:35.909Z,2.67
2018-04-13T07:50:03.383Z,1.77
2018-04-13T07:52:30.847Z,4.73
2018-04-13T07:54:58.299Z,2.03
2018-04-13T07:57:25.760Z,1.00
2018-04-13T07:59:53.212Z,1.83
2018-04-13T08:02:20.680Z,2.53
2018-04-13T08:04:48.169Z,2.57
2018-04-13T08:07:15.624Z,1.67
2018-04-13T08:09:43.081Z,1.73
2018-04-13T08:12:11.861Z,2.40
2018-04-13T08:14:41.178Z,3.33
2018-04-13T08:17:08.706Z,2.13
2018-04-13T08:19:36.192Z,0.73
2018-04-13T08:22:04.433Z,2.43
2018-04-13T08:24:31.896Z,1.13
2018-04-13T08:26:59.354Z,0.97
2018-04-13T08:29:26.819Z,3.47
2018-04-13T08:31:54.277Z,1.47
2018-04-13T08:34:21.740Z,1.60
2018-04-13T08:36:49.205Z,0.70
2018-04-13T08:39:16.664Z,3.30
2018-04-13T08:41:44.125Z,4.17
2018-04-13T08:44:11.583Z,2.43
2018-04-13T08:46:39.832Z,1.40
2018-04-13T08:49:07.381Z,1.87
2018-04-13T08:51:34.756Z,2.37
2018-04-13T08:54:02.239Z,2.90
2018-04-13T08:56:29.713Z,3.77
2018-04-13T08:58:57.189Z,1.53
2018-04-13T09:01:24.685Z,1.73
2018-04-13T09:03:52.988Z,1.80
2018-04-13T09:06:21.213Z,2.20
2018-04-13T09:08:48.683Z,1.63
2018-04-13T09:11:16.141Z,1.80
2018-04-13T09:13:43.614Z,1.97
2018-04-13T09:16:11.069Z,4.73
2018-04-13T09:18:38.537Z,1.77
2018-04-13T09:21:07.604Z,3.80
2018-04-13T09:23:35.081Z,2.63
2018-04-13T09:26:02.573Z,1.73
2018-04-13T09:28:30.048Z,1.67
2018-04-13T09:30:57.509Z,1.20
2018-04-13T09:33:24.972Z,3.07
2018-04-13T09:35:52.457Z,0.80
2018-04-13T09:38:19.908Z,0.87
2018-04-13T09:40:47.393Z,2.30
2018-04-13T09:43:14.852Z,2.37
2018-04-13T09:45:42.325Z,1.60
2018-04-13T09:48:10.120Z,1.97
2018-04-13T09:50:37.593Z,2.47
2018-04-13T09:53:05.056Z,1.30
2018-04-13T09:55:32.589Z,1.07
2018-04-13T09:58:00.360Z,2.73
2018-04-13T10:00:30.685Z,3.03
2018-04-13T10:03:03.930Z,1.83
2018-04-13T10:05:34.073Z,1.70
2018-04-13T10:08:01.628Z,1.20
2018-04-13T10:10:29.073Z,1.13
2018-04-13T10:12:57.316Z,1.20
2018-04-13T10:15:24.798Z,1.83
2018-04-13T10:17:52.272Z,1.07
2018-04-13T10:20:20.502Z,2.63
2018-04-13T10:22:47.983Z,0.60
2018-04-13T10:25:16.227Z,0.90
2018-04-13T10:27:43.700Z,0.80
2018-04-13T10:30:11.175Z,1.63
2018-04-13T10:32:38.633Z,0.53
2018-04-13T10:35:06.100Z,1.13
2018-04-13T10:37:34.339Z,2.70
2018-04-13T10:40:01.848Z,1.17
2018-04-13T10:42:29.317Z,2.10
2018-04-13T10:44:56.790Z,1.43
2018-04-13T10:47:24.285Z,2.80
2018-04-13T10:49:51.753Z,1.80
2018-04-13T10:52:19.209Z,1.77
2018-04-13T10:54:46.672Z,0.90
2018-04-13T10:57:14.926Z,1.93
2018-04-13T10:59:42.365Z,1.00
2018-04-13T11:02:09.837Z,1.90
2018-04-13T11:04:37.311Z,1.70
2018-04-13T11:07:04.773Z,1.57
2018-04-13T11:09:32.240Z,2.13
2018-04-13T11:12:00.481Z,2.50
2018-04-13T11:14:27.959Z,1.30
2018-04-13T11:16:55.457Z,2.70
2018-04-13T11:19:23.661Z,2.00
2018-04-13T11:21:51.136Z,3.07
2018-04-13T11:24:18.600Z,3.10
2018-04-13T11:26:46.072Z,2.50
2018-04-13T11:29:13.536Z,6.00
2018-04-13T11:31:41.760Z,1.43
2018-04-13T11:34:09.252Z,4.33
2018-04-13T11:36:36.701Z,2.97
2018-04-13T11:39:04.179Z,3.80
2018-04-13T11:41:32.426Z,3.90
2018-04-13T11:43:59.892Z,1.90
2018-04-13T11:46:27.361Z,3.13
2018-04-13T11:48:54.865Z,3.50
2018-04-13T11:51:22.328Z,3.53
2018-04-13T11:53:49.807Z,2.10
2018-04-13T11:56:17.272Z,5.83
2018-04-13T11:58:44.730Z,11.90
2018-04-13T12:01:12.201Z,4.30
2018-04-13T12:03:39.675Z,5.87
2018-04-13T12:06:07.133Z,6.93
2018-04-13T12:08:35.379Z,3.97
2018-04-13T12:11:02.831Z,5.13
2018-04-13T12:13:30.300Z,5.33
2018-04-13T12:15:57.761Z,2.87
2018-04-13T12:18:25.225Z,3.90
2018-04-13T12:20:52.688Z,11.10
2018-04-13T12:23:20.924Z,8.87
2018-04-13T12:25:48.389Z,2.17
2018-04-13T12:28:15.850Z,2.07
2018-04-13T12:30:43.312Z,3.83
2018-04-13T12:33:10.773Z,3.17
2018-04-13T12:35:38.263Z,3.37
2018-04-13T12:38:06.498Z,7.07
2018-04-13T12:40:33.962Z,4.30
2018-04-13T12:43:01.436Z,2.10
2018-04-13T12:45:28.927Z,4.43
2018-04-13T12:47:56.384Z,5.47
2018-04-13T12:50:23.849Z,5.33
2018-04-13T12:52:51.307Z,1.97
2018-04-13T12:55:19.586Z,4.00
2018-04-13T12:57:47.045Z,2.33
2018-04-13T13:00:14.521Z,3.80
2018-04-13T13:02:41.985Z,2.70
2018-04-13T13:05:09.448Z,5.83
2018-04-13T13:07:36.920Z,4.30
2018-04-13T13:10:04.407Z,2.00
2018-04-13T13:12:32.666Z,2.87
2018-04-13T13:15:00.140Z,2.70
2018-04-13T13:17:28.365Z,4.50
2018-04-13T13:19:55.827Z,2.97
2018-04-13T13:22:23.302Z,1.53
2018-04-13T13:24:50.785Z,2.60
2018-04-13T13:27:19.013Z,2.80
2018-04-13T13:29:46.472Z,4.47
2018-04-13T13:32:13.940Z,2.03
2018-04-13T13:34:41.412Z,5.87
2018-04-13T13:37:08.898Z,4.43
2018-04-13T13:39:36.386Z,2.57
2018-04-13T13:42:03.873Z,3.83
2018-04-13T13:44:31.338Z,3.07
2018-04-13T13:46:58.806Z,2.87
2018-04-13T13:49:27.032Z,3.00
2018-04-13T13:51:54.501Z,3.73
2018-04-13T13:54:21.965Z,2.83
2018-04-13T13:56:49.434Z,3.43
2018-04-13T13:59:16.897Z,3.03
2018-04-13T14:01:44.352Z,3.67
2018-04-13T14:04:11.821Z,5.07
2018-04-13T14:06:39.296Z,2.13
2018-04-13T14:09:07.530Z,4.70
2018-04-13T14:11:35.006Z,10.23
2018-04-13T14:14:02.474Z,11.37
2018-04-13T14:16:30.704Z,18.70
2018-04-13T14:18:58.180Z,14.87
2018-04-13T14:21:25.637Z,9.80
2018-04-13T14:23:53.140Z,6.73
2018-04-13T14:26:20.625Z,5.90
2018-04-13T14:28:48.092Z,8.53
2018-04-13T14:31:15.553Z,6.53
2018-04-13T14:33:43.004Z,5.50
2018-04-13T14:36:10.468Z,5.63
2018-04-13T14:38:37.999Z,5.07
2018-04-13T14:41:06.193Z,6.33
2018-04-13T14:43:33.657Z,5.43
2018-04-13T14:46:01.130Z,3.97
2018-04-13T14:48:28.594Z,3.33
2018-04-13T14:50:56.120Z,6.70
2018-04-13T14:53:24.314Z,3.50
2018-04-13T14:55:51.833Z,5.97
2018-04-13T14:58:19.308Z,4.93
2018-04-13T15:00:46.992Z,3.90
2018-04-13T15:03:14.449Z,4.07
2018-04-13T15:05:41.914Z,7.57
2018-04-13T15:08:09.364Z,3.93
2018-04-13T15:10:36.828Z,5.10
2018-04-13T15:13:04.309Z,6.73
2018-04-13T15:15:32.537Z,4.13
2018-04-13T15:18:00.007Z,3.60
2018-04-13T15:20:27.472Z,4.27
2018-04-13T15:22:54.938Z,3.80
2018-04-13T15:25:22.396Z,4.13
2018-04-13T15:27:49.865Z,5.07
2018-04-13T15:30:17.329Z,4.07
2018-04-13T15:32:45.602Z,4.43
2018-04-13T15:35:13.129Z,4.13
2018-04-13T15:37:47.255Z,4.13
2018-04-13T15:40:15.488Z,3.63
2018-04-13T15:42:42.937Z,3.80
2018-04-13T15:45:10.405Z,5.53
2018-04-13T15:47:37.893Z,7.27
2018-04-13T15:50:05.349Z,3.60
2018-04-13T15:52:32.821Z,5.10
2018-04-13T15:55:00.291Z,3.97
2018-04-13T15:57:27.752Z,3.97
2018-04-13T15:59:57.374Z,4.70
2018-04-13T16:02:25.626Z,4.20
2018-04-13T16:04:53.090Z,5.17
2018-04-13T16:07:21.493Z,4.33
2018-04-13T16:09:48.977Z,4.70
2018-04-13T16:12:16.458Z,6.50
2018-04-13T16:14:43.917Z,4.10
2018-04-13T16:17:11.409Z,4.47
2018-04-13T16:19:38.885Z,4.73
2018-04-13T16:22:07.096Z,4.70
2018-04-13T16:24:34.560Z,4.13
2018-04-13T16:27:02.017Z,4.87
2018-04-13T16:29:29.485Z,4.30
2018-04-13T16:31:56.948Z,4.47
2018-04-13T16:34:24.562Z,5.10
2018-04-13T16:36:52.035Z,4.63
2018-04-13T16:39:19.492Z,4.23
2018-04-13T16:41:46.967Z,4.10
2018-04-13T16:44:14.443Z,7.20
2018-04-13T16:46:41.909Z,4.73
2018-04-13T16:49:10.888Z,4.63
2018-04-13T16:51:38.380Z,4.30
2018-04-13T16:54:05.845Z,4.87
2018-04-13T16:56:34.065Z,4.83
2018-04-13T16:59:01.537Z,4.30
2018-04-13T17:01:29.015Z,4.83
2018-04-13T17:03:57.252Z,5.07
2018-04-13T17:06:24.722Z,5.03
2018-04-13T17:08:52.207Z,4.70
2018-04-13T17:11:20.445Z,4.13
2018-04-13T17:13:47.919Z,4.03
2018-04-13T17:16:16.553Z,4.93
2018-04-13T17:18:46.917Z,4.87
2018-04-13T17:21:15.435Z,6.90
2018-04-13T17:23:45.746Z,4.50
2018-04-13T17:26:16.256Z,4.53
2018-04-13T17:28:46.464Z,4.90
2018-04-13T17:31:17.831Z,4.70
2018-04-13T17:33:47.185Z,4.57
2018-04-13T17:36:16.455Z,4.50
2018-04-13T17:38:47.663Z,4.70
2018-04-13T17:41:15.137Z,5.10
2018-04-13T17:43:44.076Z,5.50
2018-04-13T17:46:14.629Z,5.13
2018-04-13T17:48:42.101Z,5.33
2018-04-13T17:51:10.702Z,4.87
2018-04-13T17:53:38.165Z,5.10
2018-04-13T17:56:05.621Z,4.53
2018-04-13T17:58:33.088Z,6.63
2018-04-13T18:01:01.306Z,4.93
2018-04-13T18:03:29.541Z,6.00
2018-04-13T18:05:57.014Z,4.90
2018-04-13T18:08:24.477Z,4.77
2018-04-13T18:10:51.937Z,5.17
2018-04-13T18:13:19.407Z,4.90
2018-04-13T18:15:46.872Z,5.00
2018-04-13T18:18:14.325Z,5.80
2018-04-13T18:20:41.788Z,5.63
2018-04-13T18:23:09.245Z,5.23
2018-04-13T18:25:36.713Z,5.00
2018-04-13T18:28:04.186Z,5.00
2018-04-13T18:30:31.646Z,4.90
2018-04-13T18:32:59.112Z,6.20
2018-04-13T18:35:26.568Z,4.63
2018-04-13T18:37:54.032Z,5.73
2018-04-13T18:40:21.559Z,5.13
2018-04-13T18:42:49.017Z,7.43
2018-04-13T18:45:16.477Z,5.10
2018-04-13T18:47:43.935Z,5.33
2018-04-13T18:50:11.414Z,5.63
2018-04-13T18:52:38.895Z,5.97
2018-04-13T18:55:07.126Z,6.10
2018-04-13T18:57:34.601Z,5.93
2018-04-13T19:00:02.114Z,6.23
2018-04-13T19:02:29.596Z,5.90
2018-04-13T19:04:57.045Z,5.97
2018-04-13T19:07:24.518Z,7.47
2018-04-13T19:09:51.984Z,6.77
2018-04-13T19:12:19.444Z,6.40
2018-04-13T19:14:46.949Z,6.60
2018-04-13T19:17:15.136Z,6.17
2018-04-13T19:19:42.602Z,6.50
2018-04-13T19:22:10.069Z,6.90
2018-04-13T19:24:37.524Z,6.50
2018-04-13T19:27:05.001Z,6.50
2018-04-13T19:29:32.475Z,6.47
2018-04-13T19:31:59.935Z,6.70
2018-04-13T19:34:27.391Z,6.73
2018-04-13T19:36:55.640Z,7.60
2018-04-13T19:39:23.108Z,7.20
2018-04-13T19:41:50.572Z,7.13
2018-04-13T19:44:18.811Z,7.37
2018-04-13T19:46:46.276Z,7.20
2018-04-13T19:49:17.710Z,6.77
2018-04-13T19:51:50.221Z,6.47
2018-04-13T19:54:17.835Z,7.33
2018-04-13T19:56:45.818Z,6.33
2018-04-13T19:59:14.120Z,6.17
2018-04-13T20:01:42.502Z,6.40
2018-04-13T20:04:10.173Z,6.40
2018-04-13T20:06:37.760Z,6.63
2018-04-13T20:09:06.000Z,8.07
2018-04-13T20:11:33.458Z,6.60
2018-04-13T20:14:00.920Z,6.20
2018-04-13T20:16:28.502Z,6.40
2018-04-13T20:18:56.732Z,6.90
2018-04-13T20:21:24.194Z,8.10
2018-04-13T20:23:51.656Z,10.00
2018-04-13T20:26:19.117Z,7.83
2018-04-13T20:28:46.583Z,7.57
2018-04-13T20:31:14.045Z,7.03
2018-04-13T20:33:44.731Z,7.87
2018-04-13T20:36:12.196Z,7.67
2018-04-13T20:38:39.653Z,7.20
2018-04-13T20:41:07.120Z,7.23
2018-04-13T20:43:34.572Z,7.83
2018-04-13T20:46:02.046Z,6.73
2018-04-13T20:48:29.542Z,7.00
2018-04-13T20:51:03.785Z,7.10
2018-04-13T20:53:31.248Z,6.47
2018-04-13T20:55:58.703Z,6.80
2018-04-13T20:58:26.337Z,6.90
2018-04-13T21:00:53.834Z,6.50
2018-04-13T21:03:24.238Z,6.90
2018-04-13T21:05:51.705Z,6.90
2018-04-13T21:08:19.165Z,7.47
2018-04-13T21:10:46.628Z,8.40
2018-04-13T21:13:14.848Z,8.40
2018-04-13T21:15:42.321Z,8.57
2018-04-13T21:18:10.558Z,8.23
2018-04-13T21:20:38.039Z,9.00
2018-04-13T21:23:05.495Z,11.13
2018-04-13T21:25:34.244Z,8.73
2018-04-13T21:28:02.001Z,8.90
2018-04-13T21:30:31.995Z,9.83
2018-04-13T21:33:02.633Z,10.23
2018-04-13T21:35:31.853Z,8.40
2018-04-13T21:38:02.095Z,9.33
2018-04-13T21:40:30.459Z,9.47
2018-04-13T21:43:00.840Z,8.73
2018-04-13T21:45:29.073Z,8.47
2018-04-13T21:47:56.542Z,8.73
2018-04-13T21:50:30.944Z,8.40
2018-04-13T21:52:58.428Z,8.27
2018-04-13T21:55:25.895Z,8.67
2018-04-13T21:57:53.360Z,9.07
2018-04-13T22:00:22.578Z,8.70
2018-04-13T22:02:50.049Z,8.63
2018-04-13T22:05:17.502Z,8.73
2018-04-13T22:07:45.733Z,8.57
2018-04-13T22:10:13.982Z,10.93
2018-04-13T22:12:55.113Z,8.60
2018-04-13T22:15:26.618Z,8.93
2018-04-13T22:17:54.149Z,9.10
2018-04-13T22:20:21.622Z,9.27
2018-04-13T22:22:49.081Z,8.97
2018-04-13T22:25:16.551Z,9.17
2018-04-13T22:27:44.015Z,9.60
2018-04-13T22:30:11.492Z,9.40
2018-04-13T22:32:38.976Z,9.33
2018-04-13T22:35:06.432Z,9.23
2018-04-13T22:37:33.907Z,9.70
2018-04-13T22:40:01.349Z,8.90
2018-04-13T22:42:28.810Z,9.87
2018-04-13T22:44:56.280Z,9.17
2018-04-13T22:47:23.740Z,9.30
2018-04-13T22:49:51.206Z,9.53
2018-04-13T22:52:19.228Z,9.77
2018-04-13T22:54:47.455Z,10.50
2018-04-13T22:57:14.905Z,9.80
2018-04-13T22:59:42.372Z,10.70
2018-04-13T23:02:09.841Z,10.47
2018-04-13T23:04:37.296Z,11.27
2018-04-13T23:07:04.753Z,9.90
2018-04-13T23:09:32.220Z,12.13
2018-04-13T23:11:59.705Z,11.70
2018-04-13T23:14:27.933Z,13.03
2018-04-13T23:16:55.394Z,12.43
2018-04-13T23:19:22.857Z,13.03
2018-04-13T23:21:50.311Z,13.50
2018-04-13T23:24:17.777Z,13.57
2018-04-13T23:26:45.239Z,15.23
2018-04-13T23:29:12.719Z,14.57
2018-04-13T23:31:40.952Z,15.07
2018-04-13T23:34:08.409Z,14.53
2018-04-13T23:36:35.873Z,15.17
2018-04-13T23:39:03.328Z,15.53
2018-04-13T23:41:30.801Z,15.47
2018-04-13T23:43:58.260Z,15.37
2018-04-13T23:46:25.716Z,15.47
2018-04-13T23:48:53.180Z,15.57
2018-04-13T23:51:20.644Z,15.97
2018-04-13T23:53:48.104Z,16.13
2018-04-13T23:56:16.337Z,16.00
2018-04-13T23:58:43.788Z,16.73
